sensor_id;sensor_type;location;lat;lon;timestamp;pressure;altitude;pressure_sealevel;temperature;humidity
63347;BME280;49472;49.880;8.650;2023-03-22T00:01:44;99872.59;;;13.28;nan
63347;BME280;49472;49.880;8.650;2023-03-22T00:04:10;99872.00;;;13.24;nan
63347;BME280;49472;49.880;8.650;2023-03-22T00:06:35;99865.72;;;13.29;nan
63347;BME280;49472;49.880;8.650;2023-03-22T00:09:01;99867.84;;;13.23;nan
63347;BME280;49472;49.880;8.650;2023-03-22T00:11:26;99856.59;;;13.24;nan
63347;BME280;49472;49.880;8.650;2023-03-22T00:13:52;99854.19;;;13.23;nan
63347;BME280;49472;49.880;8.650;2023-03-22T00:16:18;99853.13;;;13.25;nan
63347;BME280;49472;49.880;8.650;2023-03-22T00:18:44;99850.84;;;13.42;nan
63347;BME280;49472;49.880;8.650;2023-03-22T00:21:11;99847.59;;;13.59;nan
63347;BME280;49472;49.880;8.650;2023-03-22T00:23:37;99844.75;;;13.53;nan
63347;BME280;49472;49.880;8.650;2023-03-22T00:26:03;99847.75;;;13.38;nan
63347;BME280;49472;49.880;8.650;2023-03-22T00:28:28;99843.00;;;13.53;nan
63347;BME280;49472;49.880;8.650;2023-03-22T00:30:59;99843.16;;;13.52;nan
63347;BME280;49472;49.880;8.650;2023-03-22T00:33:25;99839.06;;;13.30;nan
63347;BME280;49472;49.880;8.650;2023-03-22T00:35:52;99834.09;;;13.28;nan
63347;BME280;49472;49.880;8.650;2023-03-22T00:38:19;99830.19;;;13.43;nan
63347;BME280;49472;49.880;8.650;2023-03-22T00:40:45;99839.34;;;13.36;nan
63347;BME280;49472;49.880;8.650;2023-03-22T00:43:10;99836.13;;;13.44;nan
63347;BME280;49472;49.880;8.650;2023-03-22T00:45:35;99830.16;;;13.34;nan
63347;BME280;49472;49.880;8.650;2023-03-22T00:48:02;99821.50;;;13.44;nan
63347;BME280;49472;49.880;8.650;2023-03-22T00:50:28;99833.66;;;13.23;nan
63347;BME280;49472;49.880;8.650;2023-03-22T00:52:53;99827.03;;;13.20;nan
63347;BME280;49472;49.880;8.650;2023-03-22T00:55:19;99825.16;;;13.32;nan
63347;BME280;49472;49.880;8.650;2023-03-22T00:57:44;99825.13;;;13.03;nan
63347;BME280;49472;49.880;8.650;2023-03-22T01:00:10;99826.06;;;13.12;nan
63347;BME280;49472;49.880;8.650;2023-03-22T01:02:40;99819.84;;;13.14;nan
63347;BME280;49472;49.880;8.650;2023-03-22T01:05:07;99832.16;;;13.20;nan
63347;BME280;49472;49.880;8.650;2023-03-22T01:07:33;99813.78;;;13.06;nan
63347;BME280;49472;49.880;8.650;2023-03-22T01:10:04;99820.13;;;13.11;nan
63347;BME280;49472;49.880;8.650;2023-03-22T01:12:29;99819.97;;;13.22;nan
63347;BME280;49472;49.880;8.650;2023-03-22T01:14:55;99816.78;;;13.30;nan
63347;BME280;49472;49.880;8.650;2023-03-22T01:17:20;99811.34;;;13.23;nan
63347;BME280;49472;49.880;8.650;2023-03-22T01:19:46;99808.94;;;13.32;nan
63347;BME280;49472;49.880;8.650;2023-03-22T01:22:11;99808.38;;;13.18;nan
63347;BME280;49472;49.880;8.650;2023-03-22T01:24:36;99804.09;;;13.38;nan
63347;BME280;49472;49.880;8.650;2023-03-22T01:27:02;99800.69;;;13.18;nan
63347;BME280;49472;49.880;8.650;2023-03-22T01:29:27;99812.13;;;12.95;nan
63347;BME280;49472;49.880;8.650;2023-03-22T01:31:52;99798.47;;;12.75;nan
63347;BME280;49472;49.880;8.650;2023-03-22T01:34:17;99794.66;;;12.79;nan
63347;BME280;49472;49.880;8.650;2023-03-22T01:36:43;99805.22;;;12.86;nan
63347;BME280;49472;49.880;8.650;2023-03-22T01:39:09;99798.44;;;12.85;nan
63347;BME280;49472;49.880;8.650;2023-03-22T01:41:35;99794.19;;;13.14;nan
63347;BME280;49472;49.880;8.650;2023-03-22T01:46:36;99787.16;;;13.16;nan
63347;BME280;49472;49.880;8.650;2023-03-22T01:49:02;99782.97;;;13.25;nan
63347;BME280;49472;49.880;8.650;2023-03-22T01:51:29;99779.59;;;13.24;nan
63347;BME280;49472;49.880;8.650;2023-03-22T01:53:58;99777.84;;;13.06;nan
63347;BME280;49472;49.880;8.650;2023-03-22T01:56:27;99771.06;;;12.95;nan
63347;BME280;49472;49.880;8.650;2023-03-22T01:58:54;99779.72;;;12.94;nan
63347;BME280;49472;49.880;8.650;2023-03-22T02:01:20;99777.00;;;13.05;nan
63347;BME280;49472;49.880;8.650;2023-03-22T02:04:03;99784.44;;;12.98;nan
63347;BME280;49472;49.880;8.650;2023-03-22T02:06:32;99767.41;;;12.97;nan
63347;BME280;49472;49.880;8.650;2023-03-22T02:09:03;99763.91;;;12.98;nan
63347;BME280;49472;49.880;8.650;2023-03-22T02:11:34;99766.34;;;13.00;nan
63347;BME280;49472;49.880;8.650;2023-03-22T02:19:46;99762.81;;;12.91;nan
63347;BME280;49472;49.880;8.650;2023-03-22T02:28:01;99767.13;;;12.71;nan
63347;BME280;49472;49.880;8.650;2023-03-22T02:41:56;99777.31;;;13.21;nan
63347;BME280;49472;49.880;8.650;2023-03-22T02:47:04;99773.78;;;13.22;nan
63347;BME280;49472;49.880;8.650;2023-03-22T02:52:12;99765.81;;;13.16;nan
63347;BME280;49472;49.880;8.650;2023-03-22T02:54:45;99767.72;;;13.14;nan
63347;BME280;49472;49.880;8.650;2023-03-22T02:57:27;99762.56;;;13.04;nan
63347;BME280;49472;49.880;8.650;2023-03-22T02:59:57;99753.78;;;13.16;nan
63347;BME280;49472;49.880;8.650;2023-03-22T03:02:25;99753.13;;;13.43;nan
63347;BME280;49472;49.880;8.650;2023-03-22T03:04:51;99750.69;;;13.13;nan
63347;BME280;49472;49.880;8.650;2023-03-22T03:07:21;99742.84;;;13.14;nan
63347;BME280;49472;49.880;8.650;2023-03-22T03:09:49;99747.44;;;13.40;nan
63347;BME280;49472;49.880;8.650;2023-03-22T03:12:18;99745.00;;;13.09;nan
63347;BME280;49472;49.880;8.650;2023-03-22T03:14:43;99744.47;;;13.15;nan
63347;BME280;49472;49.880;8.650;2023-03-22T03:17:21;99748.78;;;13.15;nan
63347;BME280;49472;49.880;8.650;2023-03-22T03:28:27;99746.38;;;13.23;nan
63347;BME280;49472;49.880;8.650;2023-03-22T03:33:35;99743.41;;;13.08;nan
63347;BME280;49472;49.880;8.650;2023-03-22T03:36:07;99749.59;;;13.25;nan
63347;BME280;49472;49.880;8.650;2023-03-22T03:38:37;99738.38;;;13.07;nan
63347;BME280;49472;49.880;8.650;2023-03-22T03:41:07;99733.94;;;13.09;nan
63347;BME280;49472;49.880;8.650;2023-03-22T03:43:35;99730.81;;;13.05;nan
63347;BME280;49472;49.880;8.650;2023-03-22T03:46:01;99734.47;;;13.02;nan
63347;BME280;49472;49.880;8.650;2023-03-22T03:48:28;99732.44;;;12.96;nan
63347;BME280;49472;49.880;8.650;2023-03-22T03:50:55;99731.66;;;13.06;nan
63347;BME280;49472;49.880;8.650;2023-03-22T03:53:22;99731.25;;;13.10;nan
63347;BME280;49472;49.880;8.650;2023-03-22T03:55:47;99722.63;;;13.31;nan
63347;BME280;49472;49.880;8.650;2023-03-22T03:58:12;99733.41;;;12.95;nan
63347;BME280;49472;49.880;8.650;2023-03-22T04:00:40;99724.47;;;13.09;nan
63347;BME280;49472;49.880;8.650;2023-03-22T04:03:05;99720.44;;;13.16;nan
63347;BME280;49472;49.880;8.650;2023-03-22T04:05:31;99717.06;;;13.25;nan
63347;BME280;49472;49.880;8.650;2023-03-22T04:07:56;99711.78;;;13.27;nan
63347;BME280;49472;49.880;8.650;2023-03-22T04:10:22;99706.91;;;13.43;nan
63347;BME280;49472;49.880;8.650;2023-03-22T04:12:47;99702.19;;;13.39;nan
63347;BME280;49472;49.880;8.650;2023-03-22T04:15:12;99705.97;;;13.44;nan
63347;BME280;49472;49.880;8.650;2023-03-22T04:17:38;99705.84;;;13.36;nan
63347;BME280;49472;49.880;8.650;2023-03-22T04:20:05;99702.34;;;13.08;nan
63347;BME280;49472;49.880;8.650;2023-03-22T04:22:31;99703.00;;;13.00;nan
63347;BME280;49472;49.880;8.650;2023-03-22T04:24:59;99699.63;;;13.29;nan
63347;BME280;49472;49.880;8.650;2023-03-22T04:27:26;99696.25;;;13.29;nan
63347;BME280;49472;49.880;8.650;2023-03-22T04:29:51;99688.25;;;13.12;nan
63347;BME280;49472;49.880;8.650;2023-03-22T04:32:19;99688.81;;;13.06;nan
63347;BME280;49472;49.880;8.650;2023-03-22T04:34:48;99688.53;;;13.09;nan
63347;BME280;49472;49.880;8.650;2023-03-22T04:37:14;99686.50;;;13.22;nan
63347;BME280;49472;49.880;8.650;2023-03-22T04:39:39;99689.09;;;13.13;nan
63347;BME280;49472;49.880;8.650;2023-03-22T04:42:05;99690.97;;;12.91;nan
63347;BME280;49472;49.880;8.650;2023-03-22T04:44:30;99686.94;;;12.98;nan
63347;BME280;49472;49.880;8.650;2023-03-22T04:46:55;99707.56;;;12.87;nan
63347;BME280;49472;49.880;8.650;2023-03-22T04:49:21;99702.59;;;12.95;nan
63347;BME280;49472;49.880;8.650;2023-03-22T04:51:47;99693.28;;;12.85;nan
63347;BME280;49472;49.880;8.650;2023-03-22T04:54:12;99700.56;;;12.89;nan
63347;BME280;49472;49.880;8.650;2023-03-22T04:56:37;99693.28;;;12.94;nan
63347;BME280;49472;49.880;8.650;2023-03-22T04:59:03;99690.31;;;12.99;nan
63347;BME280;49472;49.880;8.650;2023-03-22T05:01:28;99695.84;;;12.85;nan
63347;BME280;49472;49.880;8.650;2023-03-22T05:03:54;99690.97;;;12.91;nan
63347;BME280;49472;49.880;8.650;2023-03-22T05:06:19;99682.88;;;13.06;nan
63347;BME280;49472;49.880;8.650;2023-03-22T05:08:44;99690.56;;;12.86;nan
63347;BME280;49472;49.880;8.650;2023-03-22T05:11:15;99691.66;;;12.84;nan
63347;BME280;49472;49.880;8.650;2023-03-22T05:13:40;99691.66;;;12.54;nan
63347;BME280;49472;49.880;8.650;2023-03-22T05:16:07;99696.91;;;12.63;nan
63347;BME280;49472;49.880;8.650;2023-03-22T05:18:32;99701.13;;;12.83;nan
63347;BME280;49472;49.880;8.650;2023-03-22T05:20:59;99693.41;;;12.83;nan
63347;BME280;49472;49.880;8.650;2023-03-22T05:23:28;99691.13;;;12.99;nan
63347;BME280;49472;49.880;8.650;2023-03-22T05:25:53;99698.81;;;12.70;nan
63347;BME280;49472;49.880;8.650;2023-03-22T05:28:20;99703.00;;;12.71;nan
63347;BME280;49472;49.880;8.650;2023-03-22T05:30:47;99696.38;;;12.69;nan
63347;BME280;49472;49.880;8.650;2023-03-22T05:33:12;99695.84;;;12.75;nan
63347;BME280;49472;49.880;8.650;2023-03-22T05:35:41;99692.84;;;12.79;nan
63347;BME280;49472;49.880;8.650;2023-03-22T05:38:07;99700.84;;;12.57;nan
63347;BME280;49472;49.880;8.650;2023-03-22T05:40:32;99706.09;;;12.65;nan
63347;BME280;49472;49.880;8.650;2023-03-22T05:42:58;99697.06;;;12.71;nan
63347;BME280;49472;49.880;8.650;2023-03-22T05:45:24;99705.13;;;12.56;nan
63347;BME280;49472;49.880;8.650;2023-03-22T05:47:50;99710.91;;;12.39;nan
63347;BME280;49472;49.880;8.650;2023-03-22T05:50:18;99711.88;;;12.48;nan
63347;BME280;49472;49.880;8.650;2023-03-22T05:52:44;99704.47;;;12.64;nan
63347;BME280;49472;49.880;8.650;2023-03-22T05:55:13;99714.97;;;12.42;nan
63347;BME280;49472;49.880;8.650;2023-03-22T05:57:42;99713.63;;;12.67;nan
63347;BME280;49472;49.880;8.650;2023-03-22T06:00:10;99714.75;;;12.84;nan
63347;BME280;49472;49.880;8.650;2023-03-22T06:02:41;99714.72;;;12.74;nan
63347;BME280;49472;49.880;8.650;2023-03-22T06:05:06;99716.34;;;12.65;nan
63347;BME280;49472;49.880;8.650;2023-03-22T06:07:33;99722.25;;;12.46;nan
63347;BME280;49472;49.880;8.650;2023-03-22T06:09:58;99714.81;;;12.43;nan
63347;BME280;49472;49.880;8.650;2023-03-22T06:12:24;99717.13;;;12.36;nan
63347;BME280;49472;49.880;8.650;2023-03-22T06:14:50;99711.34;;;12.44;nan
63347;BME280;49472;49.880;8.650;2023-03-22T06:17:15;99715.34;;;12.37;nan
63347;BME280;49472;49.880;8.650;2023-03-22T06:19:41;99703.63;;;12.54;nan
63347;BME280;49472;49.880;8.650;2023-03-22T06:22:06;99698.94;;;12.69;nan
63347;BME280;49472;49.880;8.650;2023-03-22T06:24:32;99714.47;;;12.57;nan
63347;BME280;49472;49.880;8.650;2023-03-22T06:26:57;99701.75;;;12.36;nan
63347;BME280;49472;49.880;8.650;2023-03-22T06:29:23;99709.44;;;12.46;nan
63347;BME280;49472;49.880;8.650;2023-03-22T06:31:48;99711.47;;;12.52;nan
63347;BME280;49472;49.880;8.650;2023-03-22T06:34:13;99712.97;;;12.74;nan
63347;BME280;49472;49.880;8.650;2023-03-22T06:36:39;99719.84;;;12.64;nan
63347;BME280;49472;49.880;8.650;2023-03-22T06:39:05;99724.06;;;12.75;nan
63347;BME280;49472;49.880;8.650;2023-03-22T06:41:30;99722.41;;;12.64;nan
63347;BME280;49472;49.880;8.650;2023-03-22T06:43:55;99727.56;;;12.74;nan
63347;BME280;49472;49.880;8.650;2023-03-22T06:46:20;99726.06;;;12.62;nan
63347;BME280;49472;49.880;8.650;2023-03-22T06:48:46;99721.22;;;12.68;nan
63347;BME280;49472;49.880;8.650;2023-03-22T06:51:11;99731.75;;;12.75;nan
63347;BME280;49472;49.880;8.650;2023-03-22T06:53:36;99742.84;;;12.85;nan
63347;BME280;49472;49.880;8.650;2023-03-22T06:56:02;99750.00;;;13.01;nan
63347;BME280;49472;49.880;8.650;2023-03-22T06:58:27;99744.19;;;12.89;nan
63347;BME280;49472;49.880;8.650;2023-03-22T07:00:54;99740.56;;;13.01;nan
63347;BME280;49472;49.880;8.650;2023-03-22T07:03:20;99750.72;;;12.43;nan
63347;BME280;49472;49.880;8.650;2023-03-22T07:05:45;99752.34;;;12.54;nan
63347;BME280;49472;49.880;8.650;2023-03-22T07:08:11;99755.59;;;12.56;nan
63347;BME280;49472;49.880;8.650;2023-03-22T07:10:36;99744.16;;;12.79;nan
63347;BME280;49472;49.880;8.650;2023-03-22T07:13:02;99756.59;;;12.65;nan
63347;BME280;49472;49.880;8.650;2023-03-22T07:15:30;99755.75;;;12.64;nan
63347;BME280;49472;49.880;8.650;2023-03-22T07:17:58;99752.16;;;12.36;nan
63347;BME280;49472;49.880;8.650;2023-03-22T07:20:24;99754.69;;;12.67;nan
63347;BME280;49472;49.880;8.650;2023-03-22T07:22:50;99748.09;;;12.84;nan
63347;BME280;49472;49.880;8.650;2023-03-22T07:25:15;99752.44;;;12.83;nan
63347;BME280;49472;49.880;8.650;2023-03-22T07:27:40;99757.56;;;12.83;nan
63347;BME280;49472;49.880;8.650;2023-03-22T07:30:14;99752.16;;;12.86;nan
63347;BME280;49472;49.880;8.650;2023-03-22T07:32:39;99749.28;;;12.79;nan
63347;BME280;49472;49.880;8.650;2023-03-22T07:35:06;99757.84;;;13.19;nan
63347;BME280;49472;49.880;8.650;2023-03-22T07:37:31;99747.28;;;13.12;nan
63347;BME280;49472;49.880;8.650;2023-03-22T07:39:56;99751.78;;;13.10;nan
63347;BME280;49472;49.880;8.650;2023-03-22T07:42:21;99745.28;;;12.96;nan
63347;BME280;49472;49.880;8.650;2023-03-22T07:44:47;99749.34;;;13.09;nan
63347;BME280;49472;49.880;8.650;2023-03-22T07:47:13;99750.53;;;13.53;nan
63347;BME280;49472;49.880;8.650;2023-03-22T07:49:39;99733.28;;;13.36;nan
63347;BME280;49472;49.880;8.650;2023-03-22T07:52:04;99735.97;;;13.44;nan
63347;BME280;49472;49.880;8.650;2023-03-22T07:54:30;99744.75;;;13.51;nan
63347;BME280;49472;49.880;8.650;2023-03-22T07:56:57;99731.38;;;13.38;nan
63347;BME280;49472;49.880;8.650;2023-03-22T07:59:22;99736.47;;;13.67;nan
63347;BME280;49472;49.880;8.650;2023-03-22T08:01:49;99738.25;;;13.94;nan
63347;BME280;49472;49.880;8.650;2023-03-22T08:04:14;99729.13;;;13.82;nan
63347;BME280;49472;49.880;8.650;2023-03-22T08:06:40;99729.13;;;13.82;nan
63347;BME280;49472;49.880;8.650;2023-03-22T08:09:06;99730.00;;;14.28;nan
63347;BME280;49472;49.880;8.650;2023-03-22T08:11:33;99721.75;;;14.24;nan
63347;BME280;49472;49.880;8.650;2023-03-22T08:13:58;99738.03;;;13.78;nan
63347;BME280;49472;49.880;8.650;2023-03-22T08:16:23;99744.53;;;13.82;nan
63347;BME280;49472;49.880;8.650;2023-03-22T08:18:48;99735.25;;;13.99;nan
63347;BME280;49472;49.880;8.650;2023-03-22T08:21:14;99726.91;;;14.24;nan
63347;BME280;49472;49.880;8.650;2023-03-22T08:23:39;99714.44;;;14.47;nan
63347;BME280;49472;49.880;8.650;2023-03-22T08:26:05;99725.41;;;14.49;nan
63347;BME280;49472;49.880;8.650;2023-03-22T08:28:30;99732.81;;;14.62;nan
63347;BME280;49472;49.880;8.650;2023-03-22T08:30:56;99732.13;;;14.60;nan
63347;BME280;49472;49.880;8.650;2023-03-22T08:33:21;99730.19;;;14.72;nan
63347;BME280;49472;49.880;8.650;2023-03-22T08:35:48;99746.56;;;14.53;nan
63347;BME280;49472;49.880;8.650;2023-03-22T08:38:13;99721.66;;;14.71;nan
63347;BME280;49472;49.880;8.650;2023-03-22T08:40:38;99727.59;;;14.72;nan
63347;BME280;49472;49.880;8.650;2023-03-22T08:43:04;99733.63;;;14.81;nan
63347;BME280;49472;49.880;8.650;2023-03-22T08:45:30;99728.56;;;14.89;nan
63347;BME280;49472;49.880;8.650;2023-03-22T08:47:56;99750.69;;;14.64;nan
63347;BME280;49472;49.880;8.650;2023-03-22T08:50:21;99718.72;;;14.66;nan
63347;BME280;49472;49.880;8.650;2023-03-22T08:52:47;99720.97;;;15.05;nan
63347;BME280;49472;49.880;8.650;2023-03-22T08:55:13;99722.09;;;14.85;nan
63347;BME280;49472;49.880;8.650;2023-03-22T08:57:38;99727.47;;;15.09;nan
63347;BME280;49472;49.880;8.650;2023-03-22T09:00:04;99736.81;;;14.92;nan
63347;BME280;49472;49.880;8.650;2023-03-22T09:02:30;99712.75;;;14.66;nan
63347;BME280;49472;49.880;8.650;2023-03-22T09:04:56;99706.94;;;14.64;nan
63347;BME280;49472;49.880;8.650;2023-03-22T09:07:21;99700.41;;;14.87;nan
63347;BME280;49472;49.880;8.650;2023-03-22T09:09:48;99691.06;;;15.30;nan
63347;BME280;49472;49.880;8.650;2023-03-22T09:12:13;99685.66;;;15.15;nan
63347;BME280;49472;49.880;8.650;2023-03-22T09:14:39;99700.22;;;15.25;nan
63347;BME280;49472;49.880;8.650;2023-03-22T09:17:05;99689.59;;;15.54;nan
63347;BME280;49472;49.880;8.650;2023-03-22T09:19:30;99687.66;;;15.48;nan
63347;BME280;49472;49.880;8.650;2023-03-22T09:21:56;99675.63;;;15.82;nan
63347;BME280;49472;49.880;8.650;2023-03-22T09:24:21;99692.09;;;15.37;nan
63347;BME280;49472;49.880;8.650;2023-03-22T09:26:47;99679.97;;;15.30;nan
63347;BME280;49472;49.880;8.650;2023-03-22T09:29:12;99688.31;;;15.50;nan
63347;BME280;49472;49.880;8.650;2023-03-22T09:31:38;99678.75;;;15.42;nan
63347;BME280;49472;49.880;8.650;2023-03-22T09:34:03;99677.47;;;15.46;nan
63347;BME280;49472;49.880;8.650;2023-03-22T09:36:29;99678.56;;;14.91;nan
63347;BME280;49472;49.880;8.650;2023-03-22T09:38:56;99685.97;;;15.12;nan
63347;BME280;49472;49.880;8.650;2023-03-22T09:43:56;99657.28;;;15.33;nan
63347;BME280;49472;49.880;8.650;2023-03-22T09:46:29;99656.31;;;15.60;nan
63347;BME280;49472;49.880;8.650;2023-03-22T09:48:56;99660.91;;;15.49;nan
63347;BME280;49472;49.880;8.650;2023-03-22T09:51:37;99652.78;;;15.35;nan
63347;BME280;49472;49.880;8.650;2023-03-22T09:54:19;99662.38;;;15.25;nan
63347;BME280;49472;49.880;8.650;2023-03-22T09:59:39;99653.19;;;15.23;nan
63347;BME280;49472;49.880;8.650;2023-03-22T10:02:26;99644.44;;;15.41;nan
63347;BME280;49472;49.880;8.650;2023-03-22T10:07:52;99638.75;;;15.30;nan
63347;BME280;49472;49.880;8.650;2023-03-22T10:10:23;99625.06;;;15.55;nan
63347;BME280;49472;49.880;8.650;2023-03-22T10:13:13;99626.38;;;15.33;nan
63347;BME280;49472;49.880;8.650;2023-03-22T10:15:50;99629.25;;;15.30;nan
63347;BME280;49472;49.880;8.650;2023-03-22T10:18:22;99619.47;;;15.68;nan
63347;BME280;49472;49.880;8.650;2023-03-22T10:21:03;99632.66;;;15.99;nan
63347;BME280;49472;49.880;8.650;2023-03-22T10:23:37;99624.50;;;16.28;nan
63347;BME280;49472;49.880;8.650;2023-03-22T10:26:06;99633.94;;;15.95;nan
63347;BME280;49472;49.880;8.650;2023-03-22T10:28:40;99653.84;;;15.51;nan
63347;BME280;49472;49.880;8.650;2023-03-22T10:31:13;99638.94;;;15.62;nan
63347;BME280;49472;49.880;8.650;2023-03-22T10:33:43;99640.78;;;15.70;nan
63347;BME280;49472;49.880;8.650;2023-03-22T10:36:15;99636.31;;;15.89;nan
63347;BME280;49472;49.880;8.650;2023-03-22T10:38:52;99659.34;;;15.82;nan
63347;BME280;49472;49.880;8.650;2023-03-22T10:41:19;99645.41;;;16.01;nan
63347;BME280;49472;49.880;8.650;2023-03-22T10:43:51;99645.50;;;16.50;nan
63347;BME280;49472;49.880;8.650;2023-03-22T10:46:19;99635.81;;;16.60;nan
63347;BME280;49472;49.880;8.650;2023-03-22T10:48:48;99629.69;;;16.45;nan
63347;BME280;49472;49.880;8.650;2023-03-22T10:51:35;99625.38;;;16.95;nan
63347;BME280;49472;49.880;8.650;2023-03-22T10:54:03;99627.94;;;16.86;nan
63347;BME280;49472;49.880;8.650;2023-03-22T10:56:30;99623.19;;;17.31;nan
63347;BME280;49472;49.880;8.650;2023-03-22T10:58:55;99625.91;;;17.38;nan
63347;BME280;49472;49.880;8.650;2023-03-22T11:01:28;99630.94;;;18.18;nan
63347;BME280;49472;49.880;8.650;2023-03-22T11:04:08;99620.13;;;17.35;nan
63347;BME280;49472;49.880;8.650;2023-03-22T11:06:39;99639.28;;;18.51;nan
63347;BME280;49472;49.880;8.650;2023-03-22T11:09:18;99614.00;;;17.76;nan
63347;BME280;49472;49.880;8.650;2023-03-22T11:11:51;99611.22;;;17.38;nan
63347;BME280;49472;49.880;8.650;2023-03-22T11:14:23;99611.22;;;17.30;nan
63347;BME280;49472;49.880;8.650;2023-03-22T11:16:55;99634.19;;;17.81;nan
63347;BME280;49472;49.880;8.650;2023-03-22T11:19:24;99607.28;;;17.98;nan
63347;BME280;49472;49.880;8.650;2023-03-22T11:21:51;99608.97;;;18.60;nan
63347;BME280;49472;49.880;8.650;2023-03-22T11:24:18;99599.41;;;19.13;nan
63347;BME280;49472;49.880;8.650;2023-03-22T11:29:26;99593.53;;;19.19;nan
63347;BME280;49472;49.880;8.650;2023-03-22T11:31:55;99604.59;;;19.13;nan
63347;BME280;49472;49.880;8.650;2023-03-22T11:34:24;99590.94;;;19.04;nan
63347;BME280;49472;49.880;8.650;2023-03-22T11:36:50;99595.84;;;18.99;nan
63347;BME280;49472;49.880;8.650;2023-03-22T11:39:27;99583.16;;;19.49;nan
63347;BME280;49472;49.880;8.650;2023-03-22T11:41:58;99588.13;;;20.16;nan
63347;BME280;49472;49.880;8.650;2023-03-22T11:44:27;99588.69;;;20.55;nan
63347;BME280;49472;49.880;8.650;2023-03-22T11:46:57;99595.13;;;19.80;nan
63347;BME280;49472;49.880;8.650;2023-03-22T11:49:34;99598.00;;;19.40;nan
63347;BME280;49472;49.880;8.650;2023-03-22T11:52:10;99588.31;;;20.36;nan
63347;BME280;49472;49.880;8.650;2023-03-22T11:54:40;99589.13;;;20.15;nan
63347;BME280;49472;49.880;8.650;2023-03-22T11:57:10;99565.69;;;21.15;nan
63347;BME280;49472;49.880;8.650;2023-03-22T11:59:41;99560.38;;;21.36;nan
63347;BME280;49472;49.880;8.650;2023-03-22T12:04:46;99553.16;;;21.80;nan
63347;BME280;49472;49.880;8.650;2023-03-22T12:07:15;99544.63;;;22.26;nan
63347;BME280;49472;49.880;8.650;2023-03-22T12:09:45;99549.22;;;22.17;nan
63347;BME280;49472;49.880;8.650;2023-03-22T12:12:25;99542.38;;;20.93;nan
63347;BME280;49472;49.880;8.650;2023-03-22T12:14:56;99539.63;;;22.51;nan
63347;BME280;49472;49.880;8.650;2023-03-22T12:20:34;99544.69;;;23.69;nan
63347;BME280;49472;49.880;8.650;2023-03-22T12:23:11;99536.75;;;23.51;nan
63347;BME280;49472;49.880;8.650;2023-03-22T12:25:39;99549.34;;;23.15;nan
63347;BME280;49472;49.880;8.650;2023-03-22T12:28:08;99548.97;;;21.92;nan
63347;BME280;49472;49.880;8.650;2023-03-22T12:30:48;99529.72;;;23.06;nan
63347;BME280;49472;49.880;8.650;2023-03-22T12:33:28;99526.78;;;23.41;nan
63347;BME280;49472;49.880;8.650;2023-03-22T12:36:00;99524.78;;;23.36;nan
63347;BME280;49472;49.880;8.650;2023-03-22T12:38:33;99526.25;;;23.64;nan
63347;BME280;49472;49.880;8.650;2023-03-22T12:41:04;99517.25;;;24.17;nan
63347;BME280;49472;49.880;8.650;2023-03-22T12:43:38;99516.50;;;24.35;nan
63347;BME280;49472;49.880;8.650;2023-03-22T12:46:13;99507.59;;;24.42;nan
63347;BME280;49472;49.880;8.650;2023-03-22T12:48:45;99511.81;;;25.24;nan
63347;BME280;49472;49.880;8.650;2023-03-22T12:51:13;99514.50;;;23.87;nan
63347;BME280;49472;49.880;8.650;2023-03-22T12:53:48;99513.31;;;23.44;nan
63347;BME280;49472;49.880;8.650;2023-03-22T12:56:16;99514.72;;;24.35;nan
63347;BME280;49472;49.880;8.650;2023-03-22T12:58:47;99508.63;;;24.16;nan
63347;BME280;49472;49.880;8.650;2023-03-22T13:01:26;99507.03;;;24.65;nan
63347;BME280;49472;49.880;8.650;2023-03-22T13:03:54;99505.28;;;24.34;nan
63347;BME280;49472;49.880;8.650;2023-03-22T13:06:29;99492.84;;;24.55;nan
63347;BME280;49472;49.880;8.650;2023-03-22T13:09:17;99479.66;;;25.77;nan
63347;BME280;49472;49.880;8.650;2023-03-22T13:11:48;99492.41;;;27.03;nan
63347;BME280;49472;49.880;8.650;2023-03-22T13:17:14;99480.28;;;26.73;nan
63347;BME280;49472;49.880;8.650;2023-03-22T13:30:52;99470.50;;;25.44;nan
63347;BME280;49472;49.880;8.650;2023-03-22T13:33:27;99462.28;;;26.65;nan
63347;BME280;49472;49.880;8.650;2023-03-22T13:35:55;99460.81;;;26.57;nan
63347;BME280;49472;49.880;8.650;2023-03-22T13:43:49;99443.94;;;28.79;nan
63347;BME280;49472;49.880;8.650;2023-03-22T13:48:50;99462.41;;;25.46;nan
63347;BME280;49472;49.880;8.650;2023-03-22T13:51:31;99465.00;;;26.82;nan
63347;BME280;49472;49.880;8.650;2023-03-22T13:54:08;99453.38;;;25.11;nan
63347;BME280;49472;49.880;8.650;2023-03-22T13:59:10;99452.22;;;25.26;nan
63347;BME280;49472;49.880;8.650;2023-03-22T14:01:40;99446.56;;;25.94;nan
63347;BME280;49472;49.880;8.650;2023-03-22T14:04:15;99450.81;;;26.54;nan
63347;BME280;49472;49.880;8.650;2023-03-22T14:06:52;99448.78;;;26.85;nan
63347;BME280;49472;49.880;8.650;2023-03-22T14:09:42;99445.16;;;27.15;nan
63347;BME280;49472;49.880;8.650;2023-03-22T14:12:54;99441.56;;;26.05;nan
63347;BME280;49472;49.880;8.650;2023-03-22T14:15:28;99456.25;;;25.40;nan
63347;BME280;49472;49.880;8.650;2023-03-22T14:18:01;99456.41;;;24.16;nan
63347;BME280;49472;49.880;8.650;2023-03-22T14:20:33;99460.94;;;23.01;nan
63347;BME280;49472;49.880;8.650;2023-03-22T14:23:06;99471.06;;;23.22;nan
63347;BME280;49472;49.880;8.650;2023-03-22T14:25:33;99451.00;;;24.36;nan
63347;BME280;49472;49.880;8.650;2023-03-22T14:28:00;99449.28;;;24.05;nan
63347;BME280;49472;49.880;8.650;2023-03-22T14:32:53;99441.41;;;23.16;nan
63347;BME280;49472;49.880;8.650;2023-03-22T14:35:41;99445.41;;;23.19;nan
63347;BME280;49472;49.880;8.650;2023-03-22T14:38:12;99437.03;;;22.45;nan
63347;BME280;49472;49.880;8.650;2023-03-22T14:40:38;99440.50;;;22.91;nan
63347;BME280;49472;49.880;8.650;2023-03-22T14:45:36;99456.09;;;22.32;nan
63347;BME280;49472;49.880;8.650;2023-03-22T14:48:02;99439.78;;;23.22;nan
63347;BME280;49472;49.880;8.650;2023-03-22T14:50:27;99438.72;;;23.30;nan
63347;BME280;49472;49.880;8.650;2023-03-22T14:52:53;99435.06;;;24.19;nan
63347;BME280;49472;49.880;8.650;2023-03-22T14:55:21;99430.81;;;24.80;nan
63347;BME280;49472;49.880;8.650;2023-03-22T14:57:59;99425.13;;;22.76;nan